createdAt,value
2023-04-29T00:00:19.332Z,25.05
2023-04-29T00:03:04.662Z,24.30
2023-04-29T00:05:49.947Z,23.77
2023-04-29T00:08:35.087Z,23.90
2023-04-29T00:11:20.462Z,25.50
2023-04-29T00:14:05.529Z,24.30
2023-04-29T00:16:50.628Z,22.77
2023-04-29T00:19:35.841Z,22.90
2023-04-29T00:22:22.655Z,21.55
2023-04-29T00:25:08.480Z,22.40
2023-04-29T00:27:53.467Z,22.05
2023-04-29T00:30:38.513Z,20.95
2023-04-29T00:33:23.868Z,21.95
2023-04-29T00:36:09.552Z,21.90
2023-04-29T00:38:54.320Z,21.50
2023-04-29T00:41:39.748Z,21.98
2023-04-29T00:44:24.911Z,22.52
2023-04-29T00:47:11.554Z,22.10
2023-04-29T00:49:56.602Z,21.85
2023-04-29T00:52:43.047Z,22.00
2023-04-29T00:55:28.864Z,21.52
2023-04-29T00:58:14.252Z,22.17
2023-04-29T01:01:00.886Z,21.25
2023-04-29T01:03:46.411Z,20.88
2023-04-29T01:07:13.327Z,21.85
2023-04-29T01:10:10.701Z,20.85
2023-04-29T01:13:08.138Z,20.38
2023-04-29T01:16:06.456Z,19.65
2023-04-29T01:18:59.220Z,20.02
2023-04-29T01:21:51.638Z,19.77
2023-04-29T01:24:36.847Z,19.50
2023-04-29T01:27:42.216Z,20.02
2023-04-29T01:30:38.255Z,19.42
2023-04-29T01:33:35.731Z,20.10
2023-04-29T01:36:36.243Z,19.30
2023-04-29T01:39:34.741Z,18.77
2023-04-29T01:42:31.041Z,17.65
2023-04-29T01:45:17.763Z,16.60
2023-04-29T01:48:04.761Z,15.93
2023-04-29T01:50:50.265Z,15.60
2023-04-29T01:53:35.354Z,16.38
2023-04-29T01:56:20.406Z,18.00
2023-04-29T01:59:05.343Z,17.73
2023-04-29T02:01:50.861Z,14.48
2023-04-29T02:04:36.398Z,12.00
2023-04-29T02:07:21.894Z,11.82
2023-04-29T02:10:07.579Z,11.32
2023-04-29T02:12:52.677Z,13.05
2023-04-29T02:15:37.859Z,13.80
2023-04-29T02:18:23.210Z,16.45
2023-04-29T02:21:08.904Z,16.08
2023-04-29T02:23:54.574Z,16.88
2023-04-29T02:26:39.370Z,17.60
2023-04-29T02:29:26.421Z,16.70
2023-04-29T02:32:11.702Z,15.68
2023-04-29T02:34:57.081Z,15.65
2023-04-29T02:37:42.436Z,15.10
2023-04-29T02:40:27.313Z,16.23
2023-04-29T02:43:12.560Z,17.60
2023-04-29T02:45:57.990Z,16.98
2023-04-29T02:48:43.094Z,16.02
2023-04-29T02:51:29.040Z,17.00
2023-04-29T02:54:14.346Z,16.58
2023-04-29T02:56:59.451Z,16.48
2023-04-29T02:59:44.489Z,15.82
2023-04-29T03:02:29.476Z,14.95
2023-04-29T03:05:15.478Z,15.20
2023-04-29T03:08:00.723Z,15.75
2023-04-29T03:10:46.662Z,15.43
2023-04-29T03:13:31.834Z,15.35
2023-04-29T03:16:17.161Z,15.65
2023-04-29T03:19:02.345Z,16.08
2023-04-29T03:21:47.726Z,16.65
2023-04-29T03:24:32.892Z,15.95
2023-04-29T03:27:17.759Z,17.05
2023-04-29T03:30:02.817Z,17.02
2023-04-29T03:32:47.718Z,16.52
2023-04-29T03:35:33.025Z,15.57
2023-04-29T03:38:18.128Z,15.32
2023-04-29T03:41:03.258Z,14.82
2023-04-29T03:43:48.494Z,15.20
2023-04-29T03:46:33.446Z,15.90
2023-04-29T03:49:18.410Z,15.60
2023-04-29T03:52:04.718Z,16.05
2023-04-29T03:54:50.061Z,17.20
2023-04-29T03:57:34.972Z,16.40
2023-04-29T04:00:20.030Z,16.83
2023-04-29T04:03:05.874Z,17.10
2023-04-29T04:05:51.079Z,16.48
2023-04-29T04:08:36.179Z,15.88
2023-04-29T04:11:21.028Z,16.10
2023-04-29T04:14:06.501Z,15.73
2023-04-29T04:16:51.600Z,17.92
2023-04-29T04:19:36.929Z,18.20
2023-04-29T04:22:21.988Z,16.45
2023-04-29T04:25:08.412Z,16.00
2023-04-29T04:27:54.390Z,15.32
2023-04-29T04:30:39.292Z,15.15
2023-04-29T04:33:25.972Z,13.43
2023-04-29T04:36:11.399Z,14.65
2023-04-29T04:38:56.659Z,13.00
2023-04-29T04:41:41.732Z,11.75
2023-04-29T04:44:26.861Z,12.35
2023-04-29T04:47:11.826Z,12.23
2023-04-29T04:49:56.923Z,12.90
2023-04-29T04:52:42.679Z,12.90
2023-04-29T04:55:27.735Z,13.77
2023-04-29T04:58:12.894Z,14.23
2023-04-29T05:00:58.299Z,13.25
2023-04-29T05:03:44.055Z,13.93
2023-04-29T05:06:29.138Z,14.25
2023-04-29T05:09:14.423Z,14.40
2023-04-29T05:11:59.474Z,13.43
2023-04-29T05:14:44.888Z,13.88
2023-04-29T05:17:30.452Z,13.07
2023-04-29T05:20:15.720Z,13.82
2023-04-29T05:23:00.780Z,12.32
2023-04-29T05:25:46.102Z,12.40
2023-04-29T05:28:31.097Z,12.82
2023-04-29T05:31:16.498Z,12.93
2023-04-29T05:34:01.582Z,12.35
2023-04-29T05:36:46.674Z,10.80
2023-04-29T05:39:32.040Z,11.20
2023-04-29T05:42:16.995Z,11.00
2023-04-29T05:45:02.209Z,11.38
2023-04-29T05:47:47.567Z,12.20
2023-04-29T05:50:32.345Z,11.18
2023-04-29T05:53:17.373Z,10.73
2023-04-29T05:56:06.525Z,11.88
2023-04-29T05:58:52.139Z,14.32
2023-04-29T06:01:37.167Z,15.40
2023-04-29T06:04:22.520Z,14.93
2023-04-29T06:07:09.182Z,16.13
2023-04-29T06:09:55.034Z,18.35
2023-04-29T06:12:40.296Z,18.08
2023-04-29T06:15:25.859Z,17.52
2023-04-29T06:18:11.027Z,18.15
2023-04-29T06:20:56.048Z,16.45
2023-04-29T06:23:41.268Z,16.58
2023-04-29T06:26:26.285Z,18.15
2023-04-29T06:29:11.495Z,18.75
2023-04-29T06:31:56.892Z,15.95
2023-04-29T06:34:42.235Z,17.98
2023-04-29T06:37:28.700Z,17.33
2023-04-29T06:40:13.980Z,16.92
2023-04-29T06:42:59.227Z,16.38
2023-04-29T06:45:46.914Z,16.45
2023-04-29T06:48:32.320Z,15.13
2023-04-29T06:51:18.034Z,16.15
2023-04-29T06:54:03.000Z,15.13
2023-04-29T06:56:48.448Z,15.73
2023-04-29T06:59:33.714Z,14.82
2023-04-29T07:02:18.697Z,15.13
2023-04-29T07:05:04.017Z,15.63
2023-04-29T07:07:49.330Z,15.05
2023-04-29T07:10:34.851Z,14.27
2023-04-29T07:13:20.029Z,13.40
2023-04-29T07:16:05.628Z,14.15
2023-04-29T07:18:51.018Z,14.48
2023-04-29T07:21:36.209Z,14.85
2023-04-29T07:24:23.048Z,15.40
2023-04-29T07:27:08.060Z,13.80
2023-04-29T07:29:53.159Z,14.63
2023-04-29T07:32:38.067Z,14.82
2023-04-29T07:35:23.170Z,14.70
2023-04-29T07:38:08.340Z,12.63
2023-04-29T07:40:53.680Z,12.25
2023-04-29T07:43:40.259Z,12.45
2023-04-29T07:46:26.574Z,12.10
2023-04-29T07:49:11.640Z,13.48
2023-04-29T07:51:56.951Z,12.70
2023-04-29T07:54:42.187Z,12.20
2023-04-29T07:57:27.139Z,11.93
2023-04-29T08:00:12.462Z,11.82
2023-04-29T08:02:57.946Z,11.85
2023-04-29T08:05:43.534Z,11.50
2023-04-29T08:08:30.321Z,11.48
2023-04-29T08:11:17.383Z,13.00
2023-04-29T08:14:02.465Z,12.73
2023-04-29T08:16:47.731Z,11.60
2023-04-29T08:19:33.003Z,11.52
2023-04-29T08:22:18.191Z,9.70
2023-04-29T08:25:07.063Z,9.00
2023-04-29T08:27:52.329Z,9.63
2023-04-29T08:30:41.576Z,9.93
2023-04-29T08:33:26.991Z,9.07
2023-04-29T08:36:12.250Z,9.90
2023-04-29T08:38:57.328Z,8.93
2023-04-29T08:41:45.473Z,9.85
2023-04-29T08:44:32.666Z,10.05
2023-04-29T08:47:17.903Z,9.15
2023-04-29T08:50:05.166Z,9.15
2023-04-29T08:52:51.870Z,9.65
2023-04-29T08:55:47.250Z,8.45
2023-04-29T08:58:34.543Z,7.85
2023-04-29T09:01:19.725Z,7.57
2023-04-29T09:04:20.095Z,7.97
2023-04-29T09:07:06.826Z,8.32
2023-04-29T09:09:53.096Z,7.32
2023-04-29T09:12:38.309Z,8.07
2023-04-29T09:15:23.657Z,7.43
2023-04-29T09:18:08.737Z,7.90
2023-04-29T09:20:54.263Z,7.28
2023-04-29T09:23:39.681Z,8.02
2023-04-29T09:26:25.896Z,6.85
2023-04-29T09:29:15.896Z,7.25
2023-04-29T09:32:01.083Z,6.97
2023-04-29T09:34:46.264Z,7.00
2023-04-29T09:37:31.498Z,6.78
2023-04-29T09:40:36.572Z,6.30
2023-04-29T09:43:29.094Z,7.13
2023-04-29T09:46:14.636Z,6.70
2023-04-29T09:49:01.098Z,7.13
2023-04-29T09:51:57.825Z,6.55
2023-04-29T09:54:44.409Z,7.53
2023-04-29T09:57:42.627Z,6.70
2023-04-29T10:03:17.420Z,6.25
2023-04-29T10:06:07.421Z,5.88
2023-04-29T10:08:52.499Z,5.82
2023-04-29T10:11:38.046Z,6.80
2023-04-29T10:14:24.944Z,6.28
2023-04-29T10:17:21.893Z,6.00
2023-04-29T10:20:08.989Z,6.45
2023-04-29T10:22:56.576Z,6.68
2023-04-29T10:25:46.697Z,6.22
2023-04-29T10:28:32.806Z,5.43
2023-04-29T10:31:19.995Z,5.68
2023-04-29T10:34:04.872Z,5.45
2023-04-29T10:36:50.776Z,5.97
2023-04-29T10:39:44.071Z,5.43
2023-04-29T10:42:43.477Z,5.82
2023-04-29T10:45:31.774Z,5.68
2023-04-29T10:48:18.799Z,5.18
2023-04-29T10:51:04.134Z,5.75
2023-04-29T10:54:12.492Z,5.55
2023-04-29T10:56:57.857Z,5.23
2023-04-29T10:59:43.161Z,5.78
2023-04-29T11:02:28.207Z,4.97
2023-04-29T11:05:13.792Z,5.00
2023-04-29T11:08:23.468Z,4.93
2023-04-29T11:11:08.748Z,5.28
2023-04-29T11:13:53.828Z,5.45
2023-04-29T11:16:47.570Z,4.93
2023-04-29T11:19:36.701Z,5.53
2023-04-29T11:22:27.402Z,5.25
2023-04-29T11:25:12.355Z,4.65
2023-04-29T11:27:59.265Z,4.90
2023-04-29T11:30:46.493Z,4.43
2023-04-29T11:33:33.051Z,4.45
2023-04-29T11:36:18.379Z,4.40
2023-04-29T11:39:04.739Z,4.22
2023-04-29T11:41:52.514Z,4.45
2023-04-29T11:44:38.006Z,4.93
2023-04-29T11:47:31.474Z,3.83
2023-04-29T11:50:19.522Z,3.90
2023-04-29T11:53:04.861Z,4.15
2023-04-29T11:55:50.095Z,4.47
2023-04-29T11:58:35.148Z,5.50
2023-04-29T12:01:21.398Z,4.55
2023-04-29T12:04:07.377Z,4.00
2023-04-29T12:06:53.184Z,4.55
2023-04-29T12:09:45.205Z,4.50
2023-04-29T12:12:34.853Z,3.95
2023-04-29T12:15:20.084Z,4.55
2023-04-29T12:18:05.569Z,4.10
2023-04-29T12:20:57.321Z,5.97
2023-04-29T12:23:42.949Z,4.32
2023-04-29T12:26:30.597Z,4.22
2023-04-29T12:29:15.939Z,3.60
2023-04-29T12:32:01.327Z,3.92
2023-04-29T12:34:47.492Z,3.50
2023-04-29T12:37:33.354Z,2.95
2023-04-29T12:40:20.264Z,2.95
2023-04-29T12:43:10.933Z,3.25
2023-04-29T12:46:23.307Z,3.15
2023-04-29T12:49:08.952Z,3.03
2023-04-29T12:51:54.147Z,3.35
2023-04-29T12:54:43.653Z,3.40
2023-04-29T12:57:29.028Z,2.65
2023-04-29T13:00:15.096Z,2.47
2023-04-29T13:03:00.022Z,3.33
2023-04-29T13:05:46.078Z,2.90
2023-04-29T13:08:31.347Z,3.35
2023-04-29T13:11:16.397Z,3.20
2023-04-29T13:14:01.648Z,2.53
2023-04-29T13:16:46.681Z,3.25
2023-04-29T13:19:49.611Z,2.42
2023-04-29T13:22:37.402Z,2.60
2023-04-29T13:25:22.755Z,3.83
2023-04-29T13:28:07.610Z,4.10
2023-04-29T13:30:53.113Z,2.17
2023-04-29T13:33:40.176Z,2.22
2023-04-29T13:36:28.095Z,2.30
2023-04-29T13:39:14.452Z,2.35
2023-04-29T13:41:59.995Z,2.03
2023-04-29T13:44:52.422Z,2.30
2023-04-29T13:47:57.483Z,2.20
2023-04-29T13:51:04.964Z,1.95
2023-04-29T13:54:29.320Z,1.90
2023-04-29T13:57:47.232Z,2.20
2023-04-29T14:00:00.772Z,1.98
2023-04-29T14:05:43.838Z,2.20
2023-04-29T14:08:29.129Z,2.35
2023-04-29T14:11:14.470Z,2.63
2023-04-29T14:13:59.840Z,2.33
2023-04-29T14:16:45.048Z,1.95
2023-04-29T14:19:30.361Z,2.05
2023-04-29T14:22:15.480Z,2.00
2023-04-29T14:25:00.563Z,1.60
2023-04-29T14:27:45.696Z,2.00
2023-04-29T14:30:30.997Z,6.38
2023-04-29T14:33:16.111Z,2.70
2023-04-29T14:36:01.066Z,13.25
2023-04-29T14:38:46.444Z,2.70
2023-04-29T14:41:31.682Z,2.88
2023-04-29T14:44:17.074Z,2.47
2023-04-29T14:47:02.242Z,2.00
2023-04-29T14:49:47.300Z,1.92
2023-04-29T14:52:32.236Z,1.90
2023-04-29T14:55:17.233Z,2.08
2023-04-29T14:58:04.886Z,2.42
2023-04-29T15:00:51.033Z,2.13
2023-04-29T15:03:43.531Z,2.28
2023-04-29T15:06:29.821Z,2.20
2023-04-29T15:09:15.070Z,2.40
2023-04-29T15:11:59.977Z,1.95
2023-04-29T15:14:45.326Z,1.95
2023-04-29T15:17:30.691Z,2.42
2023-04-29T15:20:16.333Z,2.25
2023-04-29T15:23:01.485Z,1.90
2023-04-29T15:25:46.769Z,2.25
2023-04-29T15:28:31.997Z,2.60
2023-04-29T15:31:17.055Z,2.28
2023-04-29T15:34:02.369Z,2.33
2023-04-29T15:36:47.415Z,2.35
2023-04-29T15:39:32.770Z,2.40
2023-04-29T15:42:18.181Z,2.50
2023-04-29T15:45:03.094Z,2.25
2023-04-29T15:47:48.557Z,2.88
2023-04-29T15:50:33.706Z,2.72
2023-04-29T15:53:19.072Z,2.60
2023-04-29T15:56:04.675Z,2.78
2023-04-29T15:58:49.710Z,2.08
2023-04-29T16:01:36.455Z,2.33
2023-04-29T16:04:21.709Z,2.72
2023-04-29T16:07:07.146Z,3.08
2023-04-29T16:09:52.630Z,2.70
2023-04-29T16:12:37.925Z,2.50
2023-04-29T16:15:23.226Z,2.28
2023-04-29T16:18:08.178Z,2.70
2023-04-29T16:20:53.318Z,4.13
2023-04-29T16:23:38.404Z,3.15
2023-04-29T16:26:23.710Z,2.47
2023-04-29T16:29:10.127Z,2.92
2023-04-29T16:31:55.754Z,3.60
2023-04-29T16:34:41.777Z,3.75
2023-04-29T16:37:27.109Z,3.15
2023-04-29T16:40:12.789Z,3.80
2023-04-29T16:42:57.868Z,3.40
2023-04-29T16:45:43.278Z,3.47
2023-04-29T16:48:29.586Z,3.45
2023-04-29T16:51:14.571Z,3.60
2023-04-29T16:53:59.647Z,3.10
2023-04-29T16:56:44.942Z,3.75
2023-04-29T16:59:30.310Z,3.65
2023-04-29T17:02:15.606Z,3.25
2023-04-29T17:05:01.065Z,3.40
2023-04-29T17:07:46.082Z,3.28
2023-04-29T17:10:31.259Z,4.63
2023-04-29T17:13:16.665Z,5.30
2023-04-29T17:16:02.171Z,5.53
2023-04-29T17:18:47.320Z,5.00
2023-04-29T17:21:32.405Z,5.18
2023-04-29T17:24:18.166Z,5.20
2023-04-29T17:27:03.441Z,4.50
2023-04-29T17:29:48.717Z,5.10
2023-04-29T17:32:38.974Z,4.32
2023-04-29T17:35:24.170Z,5.07
2023-04-29T17:38:09.370Z,4.82
2023-04-29T17:40:54.914Z,4.53
2023-04-29T17:43:40.924Z,4.30
2023-04-29T17:46:25.880Z,3.95
2023-04-29T17:49:11.389Z,4.65
2023-04-29T17:51:57.040Z,5.00
2023-04-29T17:54:42.341Z,4.93
2023-04-29T17:57:31.098Z,5.90
2023-04-29T18:00:16.744Z,5.15
2023-04-29T18:03:02.960Z,5.75
2023-04-29T18:05:48.527Z,5.05
2023-04-29T18:08:33.795Z,5.25
2023-04-29T18:11:18.690Z,5.40
2023-04-29T18:14:04.724Z,5.38
2023-04-29T18:16:49.701Z,5.07
2023-04-29T18:19:34.814Z,5.72
2023-04-29T18:22:19.766Z,6.05
2023-04-29T18:25:05.036Z,5.47
2023-04-29T18:27:49.996Z,5.38
2023-04-29T18:30:35.837Z,4.95
2023-04-29T18:33:21.388Z,5.78
2023-04-29T18:36:06.744Z,5.55
2023-04-29T18:38:51.807Z,5.57
2023-04-29T18:41:37.235Z,5.47
2023-04-29T18:44:22.705Z,5.55
2023-04-29T18:47:07.935Z,6.03
2023-04-29T18:49:53.250Z,6.40
2023-04-29T18:52:38.725Z,6.25
2023-04-29T18:55:24.690Z,5.80
2023-04-29T18:58:10.382Z,6.07
2023-04-29T19:00:57.663Z,7.10
2023-04-29T19:03:42.829Z,7.07
2023-04-29T19:06:28.634Z,7.15
2023-04-29T19:09:13.736Z,6.47
2023-04-29T19:12:09.622Z,6.07
2023-04-29T19:14:54.887Z,6.28
2023-04-29T19:17:39.895Z,6.32
2023-04-29T19:20:25.768Z,6.50
2023-04-29T19:23:10.785Z,6.32
2023-04-29T19:25:55.743Z,7.20
2023-04-29T19:28:40.876Z,6.60
2023-04-29T19:31:26.724Z,7.55
2023-04-29T19:34:11.664Z,6.78
2023-04-29T19:36:56.868Z,7.10
2023-04-29T19:39:41.892Z,7.25
2023-04-29T19:42:27.258Z,7.70
2023-04-29T19:45:12.680Z,7.10
2023-04-29T19:48:01.853Z,6.85
2023-04-29T19:50:46.880Z,7.78
2023-04-29T19:53:32.012Z,7.85
2023-04-29T19:56:19.275Z,8.38
2023-04-29T19:59:04.661Z,8.10
2023-04-29T20:01:51.407Z,7.72
2023-04-29T20:04:36.962Z,7.65
2023-04-29T20:07:22.199Z,7.78
2023-04-29T20:10:07.759Z,7.97
2023-04-29T20:12:53.066Z,9.40
2023-04-29T20:15:37.897Z,8.30
2023-04-29T20:18:22.835Z,8.57
2023-04-29T20:21:07.924Z,7.35
2023-04-29T20:23:53.365Z,7.15
2023-04-29T20:26:38.406Z,8.05
2023-04-29T20:29:23.495Z,8.23
2023-04-29T20:32:08.885Z,7.75
2023-04-29T20:34:54.461Z,9.13
2023-04-29T20:37:39.727Z,8.88
2023-04-29T20:40:24.650Z,9.40
2023-04-29T20:43:09.874Z,9.10
2023-04-29T20:45:55.409Z,9.02
2023-04-29T20:48:40.636Z,8.23
2023-04-29T20:51:26.758Z,8.30
2023-04-29T20:54:12.282Z,9.13
2023-04-29T20:56:57.423Z,9.48
2023-04-29T20:59:42.765Z,8.48
2023-04-29T21:02:27.958Z,8.68
2023-04-29T21:05:13.421Z,10.32
2023-04-29T21:07:58.703Z,10.05
2023-04-29T21:10:43.962Z,10.23
2023-04-29T21:13:29.294Z,10.93
2023-04-29T21:16:14.402Z,10.38
2023-04-29T21:18:59.446Z,10.25
2023-04-29T21:21:44.535Z,11.50
2023-04-29T21:24:31.507Z,13.10
2023-04-29T21:27:17.162Z,12.18
2023-04-29T21:30:04.798Z,11.55
2023-04-29T21:32:50.008Z,12.05
2023-04-29T21:35:34.923Z,13.40
2023-04-29T21:38:20.382Z,12.93
2023-04-29T21:41:06.200Z,14.10
2023-04-29T21:43:51.622Z,13.80
2023-04-29T21:46:37.336Z,13.43
2023-04-29T21:49:22.477Z,13.77
2023-04-29T21:52:08.004Z,15.02
2023-04-29T21:54:53.194Z,15.52
2023-04-29T21:57:44.062Z,17.30
2023-04-29T22:00:33.402Z,16.40
2023-04-29T22:03:18.680Z,18.20
2023-04-29T22:06:03.880Z,18.38
2023-04-29T22:08:49.507Z,19.33
2023-04-29T22:11:34.674Z,19.40
2023-04-29T22:14:19.897Z,20.23
2023-04-29T22:17:04.901Z,20.45
2023-04-29T22:19:49.854Z,20.20
2023-04-29T22:22:34.929Z,21.30
2023-04-29T22:25:21.565Z,22.80
2023-04-29T22:28:06.788Z,21.92
2023-04-29T22:30:52.159Z,22.42
2023-04-29T22:33:37.329Z,22.70
2023-04-29T22:36:22.502Z,23.00
2023-04-29T22:39:07.338Z,22.42
2023-04-29T22:41:52.362Z,23.38
2023-04-29T22:44:37.492Z,21.70
2023-04-29T22:47:22.618Z,21.65
2023-04-29T22:50:07.857Z,22.15
2023-04-29T22:52:52.925Z,23.77
2023-04-29T22:55:38.048Z,24.48
2023-04-29T22:58:27.047Z,24.25
2023-04-29T23:01:12.315Z,26.15
2023-04-29T23:03:57.870Z,24.58
2023-04-29T23:06:43.137Z,24.70
2023-04-29T23:09:29.049Z,25.50
2023-04-29T23:12:14.068Z,24.30
2023-04-29T23:14:59.281Z,23.55
2023-04-29T23:17:44.364Z,25.10
2023-04-29T23:20:29.401Z,25.35
2023-04-29T23:23:14.647Z,25.70
2023-04-29T23:25:59.902Z,23.38
2023-04-29T23:28:45.770Z,25.45
2023-04-29T23:31:30.990Z,27.15
2023-04-29T23:34:17.876Z,27.33
2023-04-29T23:37:03.267Z,28.30
2023-04-29T23:39:48.324Z,28.05
2023-04-29T23:42:33.878Z,27.00
2023-04-29T23:45:18.878Z,28.10
2023-04-29T23:48:04.297Z,27.23
2023-04-29T23:50:49.135Z,27.40
2023-04-29T23:53:34.066Z,27.88
2023-04-29T23:56:19.251Z,28.23
2023-04-29T23:59:04.417Z,28.02
